createdAt,value
2023-04-14T00:02:24.942Z,162.50
2023-04-14T00:04:54.127Z,147.55
2023-04-14T00:07:21.722Z,199.45
2023-04-14T00:09:49.042Z,310.70
2023-04-14T00:12:16.478Z,297.25
2023-04-14T00:14:43.932Z,162.32
2023-04-14T00:17:11.827Z,327.73
2023-04-14T00:19:39.212Z,226.40
2023-04-14T00:22:06.674Z,222.77
2023-04-14T00:24:40.864Z,118.38
2023-04-14T00:27:08.137Z,377.52
2023-04-14T00:29:35.449Z,195.52
2023-04-14T00:32:03.263Z,411.23
2023-04-14T00:34:32.945Z,127.07
2023-04-14T00:37:00.321Z,132.50
2023-04-14T00:39:30.558Z,112.35
2023-04-14T00:41:57.860Z,161.63
2023-04-14T00:44:25.669Z,564.95
2023-04-14T00:46:53.213Z,260.40
2023-04-14T00:49:20.592Z,160.45
2023-04-14T00:51:48.347Z,448.77
2023-04-14T00:54:18.789Z,132.20
2023-04-14T00:56:51.865Z,160.90
2023-04-14T00:59:19.379Z,161.00
2023-04-14T01:01:48.256Z,427.27
2023-04-14T01:04:20.946Z,225.02
2023-04-14T01:06:48.536Z,347.27
2023-04-14T01:09:16.502Z,160.80
2023-04-14T01:12:19.939Z,159.63
2023-04-14T01:15:43.775Z,186.65
2023-04-14T01:18:24.582Z,250.73
2023-04-14T01:23:41.141Z,228.90
2023-04-14T01:26:19.100Z,164.70
2023-04-14T01:29:46.775Z,266.80
2023-04-14T01:32:23.344Z,149.52
2023-04-14T01:35:11.674Z,169.93
2023-04-14T01:37:47.555Z,155.30
2023-04-14T01:40:19.871Z,157.20
2023-04-14T01:42:59.464Z,146.65
2023-04-14T01:45:32.713Z,240.48
2023-04-14T01:48:00.594Z,152.93
2023-04-14T01:50:30.197Z,173.60
2023-04-14T01:53:01.317Z,139.98
2023-04-14T01:55:30.911Z,131.63
2023-04-14T01:57:59.434Z,135.52
2023-04-14T02:00:28.131Z,127.22
2023-04-14T02:02:56.911Z,127.70
2023-04-14T02:05:25.745Z,117.82
2023-04-14T02:07:55.134Z,111.47
2023-04-14T02:10:23.415Z,118.82
2023-04-14T02:12:55.027Z,118.88
2023-04-14T02:15:24.006Z,133.80
2023-04-14T02:17:52.381Z,115.20
2023-04-14T02:20:21.949Z,120.45
2023-04-14T02:22:49.455Z,106.53
2023-04-14T02:25:16.882Z,110.95
2023-04-14T02:27:54.898Z,111.80
2023-04-14T02:30:32.053Z,103.93
2023-04-14T02:33:11.432Z,100.20
2023-04-14T02:36:28.150Z,118.63
2023-04-14T02:39:00.992Z,101.18
2023-04-14T02:41:31.885Z,103.40
2023-04-14T02:46:55.936Z,90.60
2023-04-14T02:49:25.197Z,100.10
2023-04-14T02:51:54.047Z,86.68
2023-04-14T02:54:22.694Z,91.68
2023-04-14T02:56:51.180Z,99.68
2023-04-14T02:59:22.689Z,90.47
2023-04-14T03:02:06.193Z,97.28
2023-04-14T03:04:39.322Z,89.43
2023-04-14T03:07:16.636Z,93.82
2023-04-14T03:09:45.023Z,93.13
2023-04-14T03:12:14.877Z,92.38
2023-04-14T03:14:44.578Z,94.25
2023-04-14T03:17:14.750Z,94.50
2023-04-14T03:19:44.106Z,99.82
2023-04-14T03:22:13.051Z,100.68
2023-04-14T03:24:42.250Z,106.93
2023-04-14T03:27:18.907Z,121.38
2023-04-14T03:29:51.858Z,115.85
2023-04-14T03:32:22.496Z,124.00
2023-04-14T03:37:29.145Z,108.03
2023-04-14T03:40:00.759Z,102.00
2023-04-14T03:42:31.529Z,113.32
2023-04-14T03:45:00.708Z,105.03
2023-04-14T03:47:31.848Z,103.03
2023-04-14T03:50:05.022Z,114.22
2023-04-14T03:52:36.296Z,120.15
2023-04-14T03:55:06.898Z,104.15
2023-04-14T03:57:37.723Z,110.13
2023-04-14T04:00:09.028Z,106.82
2023-04-14T04:02:45.211Z,116.32
2023-04-14T04:05:13.691Z,90.97
2023-04-14T04:07:43.125Z,98.60
2023-04-14T04:10:13.301Z,102.18
2023-04-14T04:12:44.266Z,91.85
2023-04-14T04:15:13.869Z,94.35
2023-04-14T04:17:43.507Z,93.93
2023-04-14T04:20:16.041Z,94.38
2023-04-14T04:22:47.616Z,96.95
2023-04-14T04:25:15.794Z,103.30
2023-04-14T04:27:50.887Z,104.55
2023-04-14T04:30:20.036Z,107.60
2023-04-14T04:32:48.566Z,112.77
2023-04-14T04:35:17.423Z,108.63
2023-04-14T04:37:47.728Z,108.93
2023-04-14T04:40:15.594Z,97.78
2023-04-14T04:42:44.020Z,95.47
2023-04-14T04:45:44.193Z,95.18
2023-04-14T04:48:11.510Z,100.20
2023-04-14T04:50:42.471Z,102.85
2023-04-14T04:53:09.897Z,91.82
2023-04-14T04:55:37.128Z,94.45
2023-04-14T04:58:04.425Z,83.28
2023-04-14T05:00:31.706Z,86.07
2023-04-14T05:02:59.226Z,79.15
2023-04-14T05:05:27.302Z,70.50
2023-04-14T05:07:54.977Z,67.32
2023-04-14T05:10:23.276Z,64.88
2023-04-14T05:12:50.532Z,57.03
2023-04-14T05:15:17.920Z,53.40
2023-04-14T05:17:45.897Z,60.28
2023-04-14T05:20:13.942Z,57.22
2023-04-14T05:22:41.820Z,56.97
2023-04-14T05:25:09.774Z,53.35
2023-04-14T05:27:37.065Z,53.42
2023-04-14T05:30:05.007Z,53.30
2023-04-14T05:32:32.253Z,53.55
2023-04-14T05:34:59.739Z,51.95
2023-04-14T05:37:30.092Z,48.88
2023-04-14T05:39:57.413Z,49.65
2023-04-14T05:42:24.641Z,46.97
2023-04-14T05:44:52.145Z,54.22
2023-04-14T05:47:19.419Z,47.28
2023-04-14T05:49:46.653Z,49.40
2023-04-14T05:52:13.879Z,48.30
2023-04-14T05:54:42.955Z,57.15
2023-04-14T05:57:10.685Z,49.95
2023-04-14T05:59:37.884Z,49.55
2023-04-14T06:02:07.505Z,52.47
2023-04-14T06:04:35.072Z,49.10
2023-04-14T06:07:03.119Z,50.10
2023-04-14T06:09:30.294Z,55.63
2023-04-14T06:11:57.614Z,47.53
2023-04-14T06:14:25.392Z,48.25
2023-04-14T06:16:52.742Z,47.05
2023-04-14T06:19:20.232Z,43.97
2023-04-14T06:21:47.386Z,44.85
2023-04-14T06:24:14.613Z,45.90
2023-04-14T06:26:42.551Z,48.58
2023-04-14T06:29:09.863Z,44.75
2023-04-14T06:31:37.131Z,49.40
2023-04-14T06:34:04.403Z,42.20
2023-04-14T06:36:32.296Z,42.83
2023-04-14T06:39:00.660Z,42.30
2023-04-14T06:41:28.020Z,52.17
2023-04-14T06:43:55.917Z,45.78
2023-04-14T06:46:23.261Z,45.13
2023-04-14T06:48:50.669Z,40.03
2023-04-14T06:51:18.929Z,48.92
2023-04-14T06:53:46.355Z,43.22
2023-04-14T06:56:13.793Z,46.75
2023-04-14T06:58:41.198Z,46.15
2023-04-14T07:01:08.590Z,45.17
2023-04-14T07:03:35.930Z,46.05
2023-04-14T07:06:04.716Z,45.83
2023-04-14T07:08:33.210Z,44.45
2023-04-14T07:11:03.040Z,44.67
2023-04-14T07:13:30.555Z,43.57
2023-04-14T07:15:59.256Z,51.42
2023-04-14T07:18:26.580Z,48.28
2023-04-14T07:20:54.339Z,55.58
2023-04-14T07:23:22.798Z,45.45
2023-04-14T07:25:56.244Z,48.28
2023-04-14T07:28:25.191Z,51.45
2023-04-14T07:30:53.336Z,53.40
2023-04-14T07:33:22.499Z,47.42
2023-04-14T07:36:02.046Z,52.55
2023-04-14T07:38:33.073Z,46.95
2023-04-14T07:41:04.333Z,43.60
2023-04-14T07:43:35.268Z,45.22
2023-04-14T07:46:07.789Z,44.60
2023-04-14T07:48:37.491Z,53.72
2023-04-14T07:51:06.542Z,38.67
2023-04-14T07:53:34.560Z,43.60
2023-04-14T07:56:01.999Z,45.00
2023-04-14T07:58:29.891Z,42.65
2023-04-14T08:00:57.620Z,42.30
2023-04-14T08:03:25.122Z,45.20
2023-04-14T08:05:52.674Z,38.85
2023-04-14T08:08:20.111Z,40.90
2023-04-14T08:10:47.545Z,42.20
2023-04-14T08:13:14.765Z,44.78
2023-04-14T08:15:42.186Z,37.25
2023-04-14T08:18:09.652Z,43.15
2023-04-14T08:20:38.072Z,42.25
2023-04-14T08:23:05.447Z,43.08
2023-04-14T08:25:32.760Z,44.63
2023-04-14T08:28:00.144Z,41.97
2023-04-14T08:30:27.501Z,44.40
2023-04-14T08:32:58.887Z,38.90
2023-04-14T08:35:41.015Z,39.40
2023-04-14T08:38:09.889Z,35.50
2023-04-14T08:40:42.737Z,31.92
2023-04-14T08:43:13.216Z,29.98
2023-04-14T08:45:43.553Z,32.50
2023-04-14T08:48:15.621Z,42.60
2023-04-14T08:51:22.259Z,39.15
2023-04-14T08:53:51.647Z,42.55
2023-04-14T08:56:21.109Z,40.17
2023-04-14T08:58:49.116Z,33.70
2023-04-14T09:01:16.843Z,32.85
2023-04-14T09:03:44.883Z,29.67
2023-04-14T09:06:14.068Z,30.45
2023-04-14T09:08:41.349Z,31.05
2023-04-14T09:11:09.673Z,31.40
2023-04-14T09:13:38.100Z,31.70
2023-04-14T09:16:06.148Z,29.10
2023-04-14T09:18:34.838Z,33.22
2023-04-14T09:21:48.988Z,34.22
2023-04-14T09:23:52.035Z,29.00
2023-04-14T09:26:19.430Z,29.05
2023-04-14T09:28:47.472Z,22.65
2023-04-14T09:31:14.903Z,23.42
2023-04-14T09:33:50.475Z,28.10
2023-04-14T09:36:23.505Z,28.05
2023-04-14T09:38:51.962Z,24.55
2023-04-14T09:41:22.580Z,23.13
2023-04-14T09:43:50.753Z,21.80
2023-04-14T09:46:18.172Z,25.63
2023-04-14T09:48:56.382Z,22.98
2023-04-14T09:51:28.451Z,21.85
2023-04-14T09:54:02.581Z,24.17
2023-04-14T09:56:30.339Z,27.15
2023-04-14T09:59:01.445Z,23.85
2023-04-14T10:01:33.735Z,24.98
2023-04-14T10:04:03.131Z,22.55
2023-04-14T10:06:33.822Z,20.60
2023-04-14T10:09:02.136Z,22.65
2023-04-14T10:11:33.067Z,24.20
2023-04-14T10:14:06.459Z,21.08
2023-04-14T10:16:34.741Z,23.02
2023-04-14T10:19:03.049Z,20.98
2023-04-14T10:21:30.892Z,19.85
2023-04-14T10:23:58.525Z,23.13
2023-04-14T10:26:26.787Z,23.60
2023-04-14T10:28:56.335Z,23.00
2023-04-14T10:31:33.338Z,22.45
2023-04-14T10:34:14.231Z,21.60
2023-04-14T10:36:42.889Z,21.58
2023-04-14T10:39:12.321Z,27.35
2023-04-14T10:41:52.140Z,27.38
2023-04-14T10:44:35.150Z,24.45
2023-04-14T10:47:10.167Z,23.80
2023-04-14T10:49:39.668Z,24.98
2023-04-14T10:52:15.852Z,25.90
2023-04-14T10:55:08.957Z,17.95
2023-04-14T10:57:45.855Z,20.63
2023-04-14T11:00:25.395Z,23.63
2023-04-14T11:03:12.001Z,18.60
2023-04-14T11:05:45.068Z,20.00
2023-04-14T11:08:35.554Z,22.20
2023-04-14T11:13:35.442Z,27.27
2023-04-14T11:16:04.122Z,21.05
2023-04-14T11:18:35.867Z,24.15
2023-04-14T11:21:16.125Z,19.60
2023-04-14T11:26:14.422Z,19.20
2023-04-14T11:28:44.642Z,18.05
2023-04-14T11:31:15.169Z,15.45
2023-04-14T11:36:13.054Z,17.17
2023-04-14T11:38:40.990Z,15.95
2023-04-14T11:41:10.134Z,19.10
2023-04-14T11:43:46.683Z,20.23
2023-04-14T11:46:15.889Z,15.05
2023-04-14T11:48:43.228Z,17.08
2023-04-14T11:51:10.622Z,19.85
2023-04-14T11:53:40.672Z,16.27
2023-04-14T11:56:13.172Z,14.68
2023-04-14T11:58:40.921Z,13.07
2023-04-14T12:01:09.034Z,12.35
2023-04-14T12:03:39.283Z,13.60
2023-04-14T12:06:07.193Z,10.85
2023-04-14T12:08:36.296Z,9.43
2023-04-14T12:11:15.351Z,10.15
2023-04-14T12:13:44.348Z,13.77
2023-04-14T12:16:16.895Z,8.35
2023-04-14T12:18:44.916Z,7.53
2023-04-14T12:21:19.018Z,8.63
2023-04-14T12:23:49.371Z,9.07
2023-04-14T12:26:17.230Z,8.10
2023-04-14T12:28:45.121Z,9.30
2023-04-14T12:31:12.521Z,9.80
2023-04-14T12:33:39.878Z,8.65
2023-04-14T12:36:14.149Z,8.40
2023-04-14T12:38:41.760Z,10.70
2023-04-14T12:41:09.096Z,7.03
2023-04-14T12:43:38.699Z,9.77
2023-04-14T12:46:08.081Z,7.97
2023-04-14T12:48:43.743Z,9.93
2023-04-14T12:51:13.523Z,12.13
2023-04-14T12:53:42.581Z,12.15
2023-04-14T12:56:22.698Z,11.93
2023-04-14T12:58:51.350Z,7.43
2023-04-14T13:01:23.814Z,8.23
2023-04-14T13:03:56.058Z,10.52
2023-04-14T13:06:25.073Z,8.60
2023-04-14T13:08:54.196Z,13.43
2023-04-14T13:11:23.708Z,9.25
2023-04-14T13:13:52.646Z,12.70
2023-04-14T13:16:21.000Z,8.07
2023-04-14T13:18:49.014Z,10.25
2023-04-14T13:21:16.942Z,10.60
2023-04-14T13:23:44.445Z,10.30
2023-04-14T13:26:12.698Z,9.63
2023-04-14T13:28:40.431Z,10.25
2023-04-14T13:31:07.847Z,12.43
2023-04-14T13:33:35.247Z,8.45
2023-04-14T13:36:03.500Z,7.18
2023-04-14T13:38:31.240Z,10.15
2023-04-14T13:40:58.690Z,8.95
2023-04-14T13:43:26.355Z,7.50
2023-04-14T13:45:58.106Z,9.95
2023-04-14T13:48:26.301Z,6.68
2023-04-14T13:50:54.513Z,12.00
2023-04-14T13:53:21.803Z,7.80
2023-04-14T13:55:49.108Z,7.65
2023-04-14T13:58:16.383Z,9.13
2023-04-14T14:00:43.701Z,8.70
2023-04-14T14:03:11.126Z,8.75
2023-04-14T14:05:38.458Z,9.65
2023-04-14T14:08:05.746Z,10.48
2023-04-14T14:10:32.936Z,10.50
2023-04-14T14:13:00.211Z,11.75
2023-04-14T14:15:27.537Z,8.38
2023-04-14T14:17:55.252Z,11.95
2023-04-14T14:20:22.590Z,12.05
2023-04-14T14:22:50.046Z,8.15
2023-04-14T14:25:21.051Z,12.25
2023-04-14T14:27:50.244Z,9.98
2023-04-14T14:30:17.558Z,19.67
2023-04-14T14:32:44.820Z,34.90
2023-04-14T14:35:12.233Z,35.83
2023-04-14T14:37:40.922Z,36.53
2023-04-14T14:40:09.255Z,39.67
2023-04-14T14:42:36.704Z,42.42
2023-04-14T14:45:05.087Z,46.65
2023-04-14T14:47:34.220Z,46.42
2023-04-14T14:50:05.990Z,54.17
2023-04-14T14:52:35.350Z,48.03
2023-04-14T14:55:03.574Z,53.70
2023-04-14T14:57:31.352Z,44.60
2023-04-14T14:59:58.809Z,54.55
2023-04-14T15:02:26.778Z,60.40
2023-04-14T15:04:54.784Z,56.47
2023-04-14T15:07:22.489Z,60.20
2023-04-14T15:09:51.074Z,59.38
2023-04-14T15:12:18.452Z,60.75
2023-04-14T15:14:45.927Z,58.63
2023-04-14T15:17:13.453Z,60.13
2023-04-14T15:19:42.118Z,64.70
2023-04-14T15:22:10.552Z,67.13
2023-04-14T15:24:37.989Z,68.70
2023-04-14T15:27:05.200Z,78.00
2023-04-14T15:29:32.512Z,77.28
2023-04-14T15:32:01.052Z,77.93
2023-04-14T15:34:29.726Z,429.90
2023-04-14T15:36:57.202Z,108.32
2023-04-14T15:39:24.613Z,97.78
2023-04-14T15:41:52.191Z,93.65
2023-04-14T15:44:19.624Z,155.63
2023-04-14T15:46:47.016Z,127.82
2023-04-14T15:49:14.527Z,585.38
2023-04-14T15:51:42.026Z,141.82
2023-04-14T15:54:09.301Z,114.20
2023-04-14T15:56:36.904Z,106.88
2023-04-14T15:59:04.304Z,110.60
2023-04-14T16:01:31.745Z,114.93
2023-04-14T16:03:59.176Z,118.28
2023-04-14T16:06:26.708Z,123.70
2023-04-14T16:08:54.054Z,115.65
2023-04-14T16:11:21.530Z,118.10
2023-04-14T16:13:48.979Z,209.60
2023-04-14T16:16:17.925Z,177.10
2023-04-14T16:18:45.709Z,137.27
2023-04-14T16:21:13.656Z,127.50
2023-04-14T16:23:42.182Z,125.95
2023-04-14T16:26:09.428Z,122.65
2023-04-14T16:28:36.663Z,125.15
2023-04-14T16:31:04.046Z,117.80
2023-04-14T16:33:34.389Z,125.25
2023-04-14T16:36:09.085Z,122.55
2023-04-14T16:38:36.516Z,124.97
2023-04-14T16:41:03.952Z,131.70
2023-04-14T16:43:31.523Z,137.35
2023-04-14T16:46:07.152Z,121.22
2023-04-14T16:48:35.970Z,111.20
2023-04-14T16:51:08.722Z,121.88
2023-04-14T16:53:38.672Z,133.35
2023-04-14T16:56:11.359Z,135.55
2023-04-14T16:58:39.957Z,134.93
2023-04-14T17:01:07.583Z,119.82
2023-04-14T17:03:35.287Z,134.05
2023-04-14T17:06:03.705Z,133.52
2023-04-14T17:08:31.254Z,134.32
2023-04-14T17:10:58.642Z,122.38
2023-04-14T17:13:27.038Z,117.82
2023-04-14T17:16:05.652Z,127.25
2023-04-14T17:18:36.650Z,113.07
2023-04-14T17:21:06.214Z,114.80
2023-04-14T17:23:37.945Z,129.52
2023-04-14T17:26:05.975Z,117.60
2023-04-14T17:28:34.862Z,118.78
2023-04-14T17:31:04.368Z,121.40
2023-04-14T17:33:32.539Z,107.78
2023-04-14T17:35:59.744Z,136.45
2023-04-14T17:38:27.232Z,132.73
2023-04-14T17:40:54.697Z,105.82
2023-04-14T17:43:22.687Z,111.05
2023-04-14T17:45:50.726Z,102.00
2023-04-14T17:48:18.156Z,102.40
2023-04-14T17:50:46.512Z,97.50
2023-04-14T17:53:15.671Z,111.35
2023-04-14T17:55:43.743Z,116.47
2023-04-14T17:58:11.203Z,107.05
2023-04-14T18:00:39.314Z,112.10
2023-04-14T18:03:06.797Z,108.95
2023-04-14T18:05:34.149Z,102.53
2023-04-14T18:08:01.552Z,146.70
2023-04-14T18:10:29.079Z,108.35
2023-04-14T18:12:56.591Z,100.25
2023-04-14T18:15:23.927Z,103.03
2023-04-14T18:17:51.439Z,108.45
2023-04-14T18:20:24.718Z,96.18
2023-04-14T18:22:54.285Z,98.05
2023-04-14T18:25:21.697Z,102.03
2023-04-14T18:30:19.468Z,102.22
2023-04-14T18:32:46.806Z,106.57
2023-04-14T18:35:15.812Z,102.22
2023-04-14T18:37:43.347Z,126.18
2023-04-14T18:40:10.964Z,113.75
2023-04-14T18:42:39.151Z,119.45
2023-04-14T18:45:07.431Z,103.90
2023-04-14T18:47:35.000Z,146.27
2023-04-14T18:50:04.200Z,183.27
2023-04-14T18:52:31.533Z,219.60
2023-04-14T18:54:59.085Z,328.55
2023-04-14T18:57:26.899Z,169.93
2023-04-14T18:59:54.192Z,150.57
2023-04-14T19:02:21.648Z,135.13
2023-04-14T19:04:51.918Z,141.13
2023-04-14T19:07:19.354Z,201.95
2023-04-14T19:09:46.671Z,199.68
2023-04-14T19:12:25.507Z,196.85
2023-04-14T19:14:55.658Z,179.32
2023-04-14T19:17:23.038Z,204.45
2023-04-14T19:19:50.510Z,165.43
2023-04-14T19:22:17.891Z,220.93
2023-04-14T19:24:45.130Z,194.23
2023-04-14T19:27:12.295Z,210.60
2023-04-14T19:29:39.699Z,256.25
2023-04-14T19:32:07.141Z,386.05
2023-04-14T19:34:34.619Z,196.88
2023-04-14T19:37:04.118Z,175.25
2023-04-14T19:39:31.908Z,563.05
2023-04-14T19:41:59.417Z,428.08
2023-04-14T19:44:27.268Z,296.13
2023-04-14T19:46:54.787Z,314.13
2023-04-14T19:49:22.841Z,203.30
2023-04-14T19:51:51.006Z,182.85
2023-04-14T19:54:20.401Z,185.18
2023-04-14T19:56:47.821Z,179.60
2023-04-14T19:59:15.421Z,695.70
2023-04-14T20:01:42.775Z,690.42
2023-04-14T20:04:12.822Z,185.13
2023-04-14T20:06:42.919Z,197.48
2023-04-14T20:09:10.620Z,845.42
2023-04-14T20:12:03.297Z,185.38
2023-04-14T20:14:30.743Z,340.27
2023-04-14T20:16:58.255Z,239.38
2023-04-14T20:19:25.844Z,221.15
2023-04-14T20:22:17.911Z,165.48
2023-04-14T20:25:09.896Z,211.32
2023-04-14T20:28:02.326Z,827.90
2023-04-14T20:30:32.255Z,819.83
2023-04-14T20:33:04.706Z,587.75
2023-04-14T20:35:36.263Z,285.45
2023-04-14T20:38:05.322Z,267.80
2023-04-14T20:40:32.995Z,798.83
2023-04-14T20:43:00.705Z,257.00
2023-04-14T20:45:27.962Z,210.63
2023-04-14T20:47:55.505Z,556.97
2023-04-14T20:50:23.388Z,287.63
2023-04-14T20:52:50.828Z,244.88
2023-04-14T20:55:19.943Z,216.27
2023-04-14T20:57:48.209Z,199.18
2023-04-14T21:00:16.804Z,244.70
2023-04-14T21:02:45.516Z,205.15
2023-04-14T21:05:15.492Z,173.65
2023-04-14T21:07:43.772Z,218.55
2023-04-14T21:10:13.074Z,165.18
2023-04-14T21:13:54.296Z,98.93
2023-04-14T21:15:51.872Z,111.55
2023-04-14T21:18:15.470Z,18.17
2023-04-14T21:20:43.581Z,10.27
2023-04-14T21:23:10.884Z,8.23
2023-04-14T21:25:38.539Z,9.10
2023-04-14T21:28:06.254Z,4.45
2023-04-14T21:30:34.350Z,3.90
2023-04-14T21:33:01.983Z,5.57
2023-04-14T21:35:29.691Z,8.60
2023-04-14T21:37:57.533Z,8.40
2023-04-14T21:40:25.118Z,6.30
2023-04-14T21:42:53.028Z,1.85
2023-04-14T21:45:20.541Z,4.30
2023-04-14T21:47:48.005Z,1.70
2023-04-14T21:50:15.432Z,3.17
2023-04-14T21:52:42.727Z,2.53
2023-04-14T21:55:10.510Z,2.55
2023-04-14T21:57:44.390Z,2.13
2023-04-14T22:00:20.484Z,0.63
2023-04-14T22:02:48.358Z,1.77
2023-04-14T22:05:16.103Z,2.50
2023-04-14T22:07:43.363Z,1.23
2023-04-14T22:10:12.238Z,2.47
2023-04-14T22:12:40.017Z,0.70
2023-04-14T22:15:08.818Z,0.70
2023-04-14T22:17:37.575Z,2.17
2023-04-14T22:20:06.536Z,1.88
2023-04-14T22:22:34.876Z,0.88
2023-04-14T22:25:04.265Z,1.27
2023-04-14T22:27:33.973Z,0.80
2023-04-14T22:30:02.713Z,1.23
2023-04-14T22:32:30.035Z,1.17
2023-04-14T22:34:57.374Z,1.73
2023-04-14T22:37:24.591Z,1.85
2023-04-14T22:39:52.062Z,1.65
2023-04-14T22:42:19.275Z,0.73
2023-04-14T22:44:48.161Z,1.63
2023-04-14T22:47:15.643Z,1.30
2023-04-14T22:49:42.932Z,1.95
2023-04-14T22:52:10.184Z,1.77
2023-04-14T22:54:37.506Z,1.30
2023-04-14T22:57:05.168Z,1.50
2023-04-14T22:59:32.497Z,0.80
2023-04-14T23:01:59.790Z,1.13
2023-04-14T23:04:27.169Z,0.95
2023-04-14T23:06:54.727Z,0.73
2023-04-14T23:09:22.007Z,1.33
2023-04-14T23:11:49.428Z,1.08
2023-04-14T23:14:16.979Z,0.70
2023-04-14T23:16:44.174Z,0.35
2023-04-14T23:19:11.711Z,0.80
2023-04-14T23:21:38.979Z,1.25
2023-04-14T23:24:07.508Z,0.70
2023-04-14T23:26:34.855Z,0.60
2023-04-14T23:29:02.369Z,0.82
2023-04-14T23:31:29.854Z,0.60
2023-04-14T23:33:57.278Z,0.25
2023-04-14T23:36:24.499Z,0.20
2023-04-14T23:38:51.789Z,0.45
2023-04-14T23:41:19.527Z,0.25
2023-04-14T23:43:49.206Z,0.15
2023-04-14T23:46:16.501Z,0.10
2023-04-14T23:48:43.745Z,0.65
2023-04-14T23:51:21.667Z,0.17
2023-04-14T23:53:49.701Z,0.40
2023-04-14T23:56:17.691Z,0.45
2023-04-14T23:58:45.071Z,0.57
